Time;durP1;ratioP1;P1;durP2;ratioP2;P2;SDS_P1;SDS_P2;PMS_P1;PMS_P2;Temp;Humidity;BMP_temperature;BMP_pressure;BME280_temperature;BME280_humidity;BME280_pressure;Samples;Min_cycle;Max_cycle;Signal;HPM_P1;HPM_P2
2023/12/11 00:01:07;;;;;;;0.00;0.00;;;5.20;100.00;;;;;;4977633;28;20046;-71
2023/12/11 00:03:34;;;;;;;0.00;0.00;;;5.20;100.00;;;;;;4977878;28;20061;-70
2023/12/11 00:06:02;;;;;;;0.00;0.00;;;5.20;100.00;;;;;;4976548;28;20058;-70
2023/12/11 00:08:29;;;;;;;0.00;0.00;;;5.20;100.00;;;;;;4975795;28;20062;-70
2023/12/11 00:10:56;;;;;;;0.00;0.00;;;5.20;100.00;;;;;;4977021;28;20058;-71
2023/12/11 00:13:23;;;;;;;0.00;0.00;;;5.20;100.00;;;;;;4993241;28;20062;-70
2023/12/11 00:15:50;;;;;;;0.00;0.00;;;5.20;100.00;;;;;;4977614;28;20058;-70
2023/12/11 00:18:17;;;;;;;0.00;0.00;;;5.20;100.00;;;;;;4977351;28;20137;-71
2023/12/11 00:20:45;;;;;;;0.00;0.00;;;5.10;100.00;;;;;;4977612;28;20051;-71
2023/12/11 00:23:11;;;;;;;0.00;0.00;;;5.20;100.00;;;;;;4977872;28;20095;-71
2023/12/11 00:25:46;;;;;;;0.00;0.00;;;5.10;100.00;;;;;;4976552;28;20137;-70
2023/12/11 00:28:13;;;;;;;0.00;0.00;;;5.10;100.00;;;;;;4977978;28;20050;-70
2023/12/11 00:30:40;;;;;;;0.00;0.00;;;5.10;100.00;;;;;;4976715;28;20055;-70
2023/12/11 00:33:08;;;;;;;0.00;0.00;;;5.10;100.00;;;;;;4972319;28;20054;-71
2023/12/11 00:35:35;;;;;;;0.00;0.00;;;5.10;100.00;;;;;;4973510;28;20466;-71
2023/12/11 00:38:02;;;;;;;0.00;0.00;;;5.10;100.00;;;;;;4973011;28;20046;-70
2023/12/11 00:40:29;;;;;;;0.00;0.00;;;5.10;100.00;;;;;;4974799;28;20054;-70
2023/12/11 00:42:56;;;;;;;0.00;0.00;;;5.10;100.00;;;;;;4976654;28;20050;-70
2023/12/11 00:45:23;;;;;;;0.00;0.00;;;5.10;100.00;;;;;;4976643;28;20157;-71
2023/12/11 00:47:50;;;;;;;0.00;0.00;;;5.10;100.00;;;;;;4994282;28;20087;-70
2023/12/11 00:50:17;;;;;;;0.00;0.00;;;5.10;100.00;;;;;;4979514;28;20054;-71
2023/12/11 00:52:44;;;;;;;0.00;0.00;;;5.10;100.00;;;;;;4981954;28;20062;-69
2023/12/11 00:55:11;;;;;;;0.00;0.00;;;5.00;100.00;;;;;;4980977;28;20055;-70
2023/12/11 00:57:38;;;;;;;0.00;0.00;;;5.00;100.00;;;;;;4981265;28;20054;-70
2023/12/11 01:00:06;;;;;;;0.00;0.00;;;5.00;100.00;;;;;;4979255;28;20046;-70
2023/12/11 01:02:32;;;;;;;0.00;0.00;;;5.00;100.00;;;;;;4977768;28;20133;-70
2023/12/11 01:04:59;;;;;;;0.00;0.00;;;5.00;100.00;;;;;;4981718;28;20136;-70
2023/12/11 01:07:26;;;;;;;0.00;0.00;;;5.00;100.00;;;;;;4979812;28;20061;-70
2023/12/11 01:09:55;;;;;;;0.00;0.00;;;5.00;100.00;;;;;;4980151;28;20089;-70
2023/12/11 01:12:22;;;;;;;0.00;0.00;;;5.00;100.00;;;;;;4980825;28;20114;-70
2023/12/11 01:14:49;;;;;;;0.00;0.00;;;5.00;100.00;;;;;;4994717;28;20055;-70
2023/12/11 01:17:17;;;;;;;0.00;0.00;;;5.00;100.00;;;;;;4993618;28;20053;-70
2023/12/11 01:20:04;;;;;;;0.00;0.00;;;5.00;100.00;;;;;;4980926;28;20054;-70
2023/12/11 01:22:31;;;;;;;0.00;0.00;;;5.00;100.00;;;;;;4980994;28;20057;-70
2023/12/11 01:25:01;;;;;;;0.00;0.00;;;4.90;100.00;;;;;;4979088;28;20705;-70
2023/12/11 01:27:29;;;;;;;0.00;0.00;;;4.90;100.00;;;;;;4979656;28;20069;-70
2023/12/11 01:29:56;;;;;;;0.13;0.13;;;4.90;100.00;;;;;;4981360;28;20144;-70
2023/12/11 01:32:23;;;;;;;0.00;0.00;;;4.90;100.00;;;;;;4987858;28;20065;-70
2023/12/11 01:34:50;;;;;;;0.00;0.00;;;4.90;100.00;;;;;;4979560;28;20062;-70
2023/12/11 01:37:18;;;;;;;0.00;0.00;;;4.90;100.00;;;;;;4980593;28;20078;-70
2023/12/11 01:39:45;;;;;;;0.00;0.00;;;4.90;100.00;;;;;;4979762;28;20057;-69
2023/12/11 01:42:13;;;;;;;0.00;0.00;;;4.90;100.00;;;;;;4979124;28;20074;-70
2023/12/11 01:44:40;;;;;;;0.00;0.00;;;4.90;100.00;;;;;;4980794;28;20057;-70
2023/12/11 01:47:07;;;;;;;0.00;0.00;;;4.80;100.00;;;;;;4980678;28;20054;-69
2023/12/11 01:49:35;;;;;;;0.00;0.00;;;4.80;100.00;;;;;;4981114;28;20179;-69
2023/12/11 01:52:03;;;;;;;0.00;0.00;;;4.80;100.00;;;;;;4980716;28;20142;-70
2023/12/11 01:54:31;;;;;;;0.00;0.00;;;4.80;100.00;;;;;;4980078;28;20054;-70
2023/12/11 01:56:58;;;;;;;0.00;0.00;;;4.80;100.00;;;;;;4979719;28;20054;-70
2023/12/11 01:59:25;;;;;;;0.00;0.00;;;4.80;100.00;;;;;;4979911;28;20485;-69
2023/12/11 02:01:52;;;;;;;0.00;0.00;;;4.80;100.00;;;;;;4980297;28;20788;-70
2023/12/11 02:04:19;;;;;;;0.00;0.00;;;4.80;100.00;;;;;;4978696;28;21153;-70
2023/12/11 02:06:46;;;;;;;0.00;0.00;;;4.80;100.00;;;;;;4980118;28;20573;-70
2023/12/11 02:09:13;;;;;;;0.00;0.00;;;4.80;100.00;;;;;;4979355;28;20113;-71
2023/12/11 02:11:40;;;;;;;0.00;0.00;;;4.80;100.00;;;;;;4979712;28;20197;-70
2023/12/11 02:14:10;;;;;;;0.00;0.00;;;4.80;100.00;;;;;;4995167;28;20069;-70
2023/12/11 02:16:36;;;;;;;0.00;0.00;;;4.80;100.00;;;;;;4978905;28;20129;-69
2023/12/11 02:19:03;;;;;;;0.00;0.00;;;4.80;100.00;;;;;;4978888;28;20062;-69
2023/12/11 02:21:30;;;;;;;0.00;0.00;;;4.80;100.00;;;;;;4980503;28;20050;-70
2023/12/11 02:24:11;;;;;;;0.00;0.00;;;4.80;100.00;;;;;;4978606;28;20050;-69
2023/12/11 02:26:38;;;;;;;0.00;0.00;;;4.80;100.00;;;;;;4979381;28;20135;-70
2023/12/11 02:29:05;;;;;;;0.00;0.00;;;4.70;100.00;;;;;;4979423;28;20096;-70
2023/12/11 02:31:32;;;;;;;0.00;0.00;;;4.70;100.00;;;;;;4988427;28;20058;-70
2023/12/11 02:33:59;;;;;;;0.00;0.00;;;4.70;100.00;;;;;;4980678;28;20098;-70
2023/12/11 02:36:26;;;;;;;0.00;0.00;;;4.70;100.00;;;;;;4979414;28;20046;-69
2023/12/11 02:38:53;;;;;;;0.00;0.00;;;4.70;100.00;;;;;;4978418;28;20062;-69
2023/12/11 02:41:20;;;;;;;0.00;0.00;;;4.70;100.00;;;;;;4980605;28;20073;-70
2023/12/11 02:43:47;;;;;;;0.00;0.00;;;4.70;100.00;;;;;;4977976;28;20128;-70
2023/12/11 02:46:14;;;;;;;0.00;0.00;;;4.70;100.00;;;;;;4980569;28;20058;-70
2023/12/11 02:48:41;;;;;;;0.00;0.00;;;4.70;100.00;;;;;;4978061;28;20081;-69
2023/12/11 02:51:08;;;;;;;0.00;0.00;;;4.70;100.00;;;;;;4979055;28;20157;-69
2023/12/11 02:53:35;;;;;;;0.00;0.00;;;4.70;100.00;;;;;;4979007;28;20494;-70
2023/12/11 02:56:02;;;;;;;0.00;0.00;;;4.70;100.00;;;;;;4992605;28;20065;-70
2023/12/11 02:58:29;;;;;;;0.00;0.00;;;4.70;100.00;;;;;;4979028;28;20062;-69
2023/12/11 03:00:56;;;;;;;0.00;0.00;;;4.70;100.00;;;;;;4979152;28;20054;-71
2023/12/11 03:03:23;;;;;;;0.00;0.00;;;4.70;100.00;;;;;;4977671;28;20146;-69
2023/12/11 03:05:50;;;;;;;0.00;0.00;;;4.60;100.00;;;;;;4978718;28;20046;-69
2023/12/11 03:08:17;;;;;;;0.00;0.00;;;4.70;100.00;;;;;;4979549;28;20069;-70
2023/12/11 03:10:45;;;;;;;0.00;0.00;;;4.60;100.00;;;;;;4980605;28;20050;-70
2023/12/11 03:13:16;;;;;;;0.00;0.00;;;4.60;100.00;;;;;;4978009;28;20053;-69
2023/12/11 03:15:43;;;;;;;0.00;0.00;;;4.60;100.00;;;;;;4993084;28;20061;-70
2023/12/11 03:18:10;;;;;;;0.00;0.00;;;4.60;100.00;;;;;;4977667;28;20054;-70
2023/12/11 03:20:37;;;;;;;0.00;0.00;;;4.60;100.00;;;;;;4976585;28;20042;-69
2023/12/11 03:23:04;;;;;;;0.00;0.00;;;4.60;100.00;;;;;;4977510;28;20422;-69
2023/12/11 03:25:31;;;;;;;0.00;0.00;;;4.60;100.00;;;;;;4978481;28;20069;-69
2023/12/11 03:27:58;;;;;;;0.00;0.00;;;4.60;100.00;;;;;;4980501;28;20136;-71
2023/12/11 03:30:25;;;;;;;0.00;0.00;;;4.60;100.00;;;;;;4990230;28;20061;-70
2023/12/11 03:32:52;;;;;;;0.00;0.00;;;4.60;100.00;;;;;;4984556;28;20187;-69
2023/12/11 03:35:19;;;;;;;0.00;0.00;;;4.60;100.00;;;;;;4984725;28;20065;-69
2023/12/11 03:37:46;;;;;;;0.00;0.00;;;4.60;100.00;;;;;;4982093;28;20125;-69
2023/12/11 03:40:13;;;;;;;0.00;0.00;;;4.60;100.00;;;;;;4986113;28;20120;-70
2023/12/11 03:42:40;;;;;;;0.00;0.00;;;4.60;100.00;;;;;;4983621;28;20109;-69
2023/12/11 03:45:08;;;;;;;0.00;0.00;;;4.60;100.00;;;;;;4982834;28;20042;-70
2023/12/11 03:47:35;;;;;;;0.00;0.00;;;4.60;100.00;;;;;;4981536;28;20095;-70
2023/12/11 03:50:03;;;;;;;0.00;0.00;;;4.60;100.00;;;;;;4984990;28;20510;-70
2023/12/11 03:52:30;;;;;;;0.00;0.00;;;4.60;100.00;;;;;;4986075;28;20105;-68
2023/12/11 03:54:57;;;;;;;0.00;0.00;;;4.60;100.00;;;;;;4981659;28;20058;-70
2023/12/11 03:57:24;;;;;;;0.00;0.00;;;4.60;100.00;;;;;;4980993;28;20049;-69
2023/12/11 03:59:51;;;;;;;0.00;0.00;;;4.60;100.00;;;;;;4984009;28;20074;-69
2023/12/11 04:02:18;;;;;;;0.00;0.00;;;4.70;100.00;;;;;;4981253;28;20134;-69
2023/12/11 04:04:45;;;;;;;0.00;0.00;;;4.60;100.00;;;;;;4980666;28;20050;-70
2023/12/11 04:07:12;;;;;;;0.00;0.00;;;4.60;100.00;;;;;;4982247;28;20055;-70
2023/12/11 04:09:39;;;;;;;0.00;0.00;;;4.60;100.00;;;;;;4983088;28;20145;-70
2023/12/11 04:12:06;;;;;;;0.00;0.00;;;4.60;100.00;;;;;;4982108;28;20054;-70
2023/12/11 04:14:33;;;;;;;0.00;0.00;;;4.60;100.00;;;;;;4980890;28;20511;-69
2023/12/11 04:17:01;;;;;;;0.00;0.00;;;4.60;100.00;;;;;;4999982;28;20526;-69
2023/12/11 04:19:28;;;;;;;0.00;0.00;;;4.70;100.00;;;;;;4986172;28;20050;-70
2023/12/11 04:21:55;;;;;;;0.00;0.00;;;4.60;100.00;;;;;;4986135;28;20490;-69
2023/12/11 04:24:22;;;;;;;0.00;0.00;;;4.70;100.00;;;;;;4979144;28;20122;-69
2023/12/11 04:26:49;;;;;;;0.00;0.00;;;4.60;100.00;;;;;;4980269;28;20046;-69
2023/12/11 04:29:16;;;;;;;0.00;0.00;;;4.60;100.00;;;;;;4983487;28;20054;-69
2023/12/11 04:31:43;;;;;;;0.00;0.00;;;4.60;100.00;;;;;;4986553;28;20086;-70
2023/12/11 04:34:09;;;;;;;0.00;0.00;;;4.60;100.00;;;;;;4987732;28;20050;-69
2023/12/11 04:36:37;;;;;;;0.00;0.00;;;4.60;100.00;;;;;;4982393;28;20089;-69
2023/12/11 04:39:04;;;;;;;0.00;0.00;;;4.70;100.00;;;;;;4987384;28;20061;-70
2023/12/11 04:41:30;;;;;;;0.00;0.00;;;4.70;100.00;;;;;;4997906;28;20042;-69
2023/12/11 04:43:57;;;;;;;0.00;0.00;;;4.70;100.00;;;;;;4986668;28;20072;-69
2023/12/11 04:46:24;;;;;;;0.00;0.00;;;4.60;100.00;;;;;;4988256;28;20097;-69
2023/12/11 04:48:51;;;;;;;0.00;0.00;;;4.60;100.00;;;;;;4987207;28;20172;-69
2023/12/11 04:51:18;;;;;;;0.00;0.00;;;4.60;100.00;;;;;;4988096;28;20101;-69
2023/12/11 04:53:45;;;;;;;0.00;0.00;;;4.60;100.00;;;;;;4988490;28;20097;-69
2023/12/11 04:56:12;;;;;;;0.00;0.00;;;4.60;100.00;;;;;;4988912;28;20128;-69
2023/12/11 04:58:39;;;;;;;0.00;0.00;;;4.60;100.00;;;;;;4986781;28;20462;-69
2023/12/11 05:01:06;;;;;;;0.00;0.00;;;4.60;100.00;;;;;;4986306;28;20607;-69
2023/12/11 05:03:33;;;;;;;0.00;0.00;;;4.60;100.00;;;;;;4987132;28;20042;-69
2023/12/11 05:06:00;;;;;;;0.00;0.00;;;4.60;100.00;;;;;;4987766;28;20046;-69
2023/12/11 05:08:27;;;;;;;0.00;0.00;;;4.60;100.00;;;;;;4980405;28;20057;-69
2023/12/11 05:10:56;;;;;;;0.00;0.00;;;4.60;100.00;;;;;;4988051;28;20082;-69
2023/12/11 05:13:23;;;;;;;0.00;0.00;;;4.70;100.00;;;;;;4988443;28;20069;-69
2023/12/11 05:15:50;;;;;;;0.00;0.00;;;4.70;100.00;;;;;;4986823;28;20049;-70
2023/12/11 05:18:18;;;;;;;0.00;0.00;;;4.70;100.00;;;;;;4981676;28;20145;-69
2023/12/11 05:20:45;;;;;;;0.00;0.00;;;4.60;100.00;;;;;;4983056;28;20643;-69
2023/12/11 05:23:12;;;;;;;0.00;0.00;;;4.70;100.00;;;;;;4986978;28;20049;-68
2023/12/11 05:25:38;;;;;;;0.00;0.00;;;4.70;100.00;;;;;;4994727;28;20074;-69
2023/12/11 05:28:05;;;;;;;0.00;0.00;;;4.70;100.00;;;;;;4986878;28;20082;-70
2023/12/11 05:30:32;;;;;;;0.00;0.00;;;4.70;100.00;;;;;;4986701;28;20050;-69
2023/12/11 05:32:59;;;;;;;0.00;0.00;;;4.70;100.00;;;;;;4984568;28;20133;-69
2023/12/11 05:35:26;;;;;;;0.00;0.00;;;4.70;100.00;;;;;;4985576;28;20133;-69
2023/12/11 05:37:57;;;;;;;0.00;0.00;;;4.70;100.00;;;;;;4979181;28;20105;-69
2023/12/11 05:40:25;;;;;;;0.00;0.00;;;4.70;100.00;;;;;;4980319;28;20047;-70
2023/12/11 05:42:52;;;;;;;0.00;0.00;;;4.70;100.00;;;;;;4987446;28;20042;-69
2023/12/11 05:45:19;;;;;;;0.00;0.00;;;4.70;100.00;;;;;;4984381;28;20101;-69
2023/12/11 05:47:46;;;;;;;0.00;0.00;;;4.70;100.00;;;;;;4987181;28;20073;-70
2023/12/11 05:50:13;;;;;;;0.00;0.00;;;4.70;100.00;;;;;;4985297;28;20046;-70
2023/12/11 05:52:40;;;;;;;0.00;0.00;;;4.70;100.00;;;;;;4985293;28;20153;-70
2023/12/11 05:55:07;;;;;;;0.00;0.00;;;4.70;100.00;;;;;;4984456;28;20054;-69
2023/12/11 05:57:34;;;;;;;0.00;0.00;;;4.80;100.00;;;;;;4985689;28;20066;-69
2023/12/11 06:00:03;;;;;;;0.00;0.00;;;4.80;100.00;;;;;;4985957;28;20459;-71
2023/12/11 06:02:30;;;;;;;0.00;0.00;;;4.80;100.00;;;;;;4985438;28;20050;-68
2023/12/11 06:04:57;;;;;;;0.00;0.00;;;4.80;100.00;;;;;;4987643;28;20050;-68
2023/12/11 06:07:24;;;;;;;0.00;0.00;;;4.80;100.00;;;;;;4988101;28;20085;-68
2023/12/11 06:09:51;;;;;;;0.00;0.00;;;4.80;100.00;;;;;;4984533;28;20130;-69
2023/12/11 06:12:18;;;;;;;0.00;0.00;;;4.80;100.00;;;;;;4987612;28;20042;-68
2023/12/11 06:14:45;;;;;;;0.00;0.00;;;4.80;100.00;;;;;;4986028;28;20086;-67
2023/12/11 06:17:15;;;;;;;0.00;0.00;;;4.80;100.00;;;;;;4980867;28;20491;-69
2023/12/11 06:22:26;;;;;;;0.00;0.00;;;4.80;100.00;;;;;;5088682;22;20100;-69
2023/12/11 06:24:54;;;;;;;0.00;0.00;;;4.80;100.00;;;;;;5001615;28;20049;-69
2023/12/11 06:27:22;;;;;;;0.00;0.00;;;4.80;100.00;;;;;;5002843;28;20128;-68
2023/12/11 06:29:49;;;;;;;0.00;0.00;;;4.80;100.00;;;;;;5019296;28;20617;-70
2023/12/11 06:32:16;;;;;;;0.00;0.00;;;4.80;100.00;;;;;;5001038;28;20464;-71
2023/12/11 06:34:43;;;;;;;0.00;0.00;;;4.80;100.00;;;;;;5000216;28;20128;-70
2023/12/11 06:37:10;;;;;;;0.00;0.00;;;4.90;100.00;;;;;;4994097;28;20096;-69
2023/12/11 06:39:37;;;;;;;0.00;0.00;;;4.90;100.00;;;;;;5024431;28;20537;-71
2023/12/11 06:42:05;;;;;;;0.00;0.00;;;4.90;100.00;;;;;;4997759;28;20796;-70
2023/12/11 06:44:32;;;;;;;0.00;0.00;;;4.90;100.00;;;;;;5000626;28;20046;-69
2023/12/11 06:46:59;;;;;;;0.00;0.00;;;4.90;100.00;;;;;;4993241;28;20718;-70
2023/12/11 06:49:25;;;;;;;0.00;0.00;;;4.90;100.00;;;;;;5000479;28;20046;-70
2023/12/11 06:51:55;;;;;;;0.00;0.00;;;5.00;100.00;;;;;;4997678;28;20078;-69
2023/12/11 06:54:22;;;;;;;0.00;0.00;;;5.00;100.00;;;;;;4992145;28;20050;-69
2023/12/11 06:56:49;;;;;;;0.00;0.00;;;5.00;100.00;;;;;;4995734;28;20080;-69
2023/12/11 06:59:15;;;;;;;0.00;0.00;;;5.00;100.00;;;;;;4997500;28;20564;-70
2023/12/11 07:01:42;;;;;;;0.00;0.00;;;5.00;100.00;;;;;;5002866;28;20544;-70
2023/12/11 07:04:10;;;;;;;0.00;0.00;;;5.00;100.00;;;;;;4992923;28;20395;-69
2023/12/11 07:06:37;;;;;;;0.00;0.00;;;5.10;100.00;;;;;;4999173;28;20050;-70
2023/12/11 07:09:04;;;;;;;0.00;0.00;;;5.10;100.00;;;;;;4999977;28;20042;-69
2023/12/11 07:11:31;;;;;;;0.00;0.00;;;5.10;100.00;;;;;;5000163;28;20073;-69
2023/12/11 07:13:58;;;;;;;0.00;0.00;;;5.10;100.00;;;;;;5002199;28;20122;-70
2023/12/11 07:16:25;;;;;;;0.00;0.00;;;5.20;100.00;;;;;;4990636;28;20054;-70
2023/12/11 07:18:52;;;;;;;0.00;0.00;;;5.20;100.00;;;;;;4998514;28;20049;-69
2023/12/11 07:21:20;;;;;;;0.00;0.00;;;5.20;100.00;;;;;;4993451;28;20476;-69
2023/12/11 07:23:50;;;;;;;0.00;0.00;;;5.20;100.00;;;;;;4998064;28;20061;-69
2023/12/11 07:26:17;;;;;;;0.00;0.00;;;5.30;100.00;;;;;;4999525;28;20056;-70
2023/12/11 07:28:44;;;;;;;0.00;0.00;;;5.30;100.00;;;;;;4999117;28;20041;-69
2023/12/11 07:31:11;;;;;;;0.00;0.00;;;5.30;100.00;;;;;;4988996;28;20877;-69
2023/12/11 07:33:38;;;;;;;0.00;0.00;;;5.40;100.00;;;;;;5003084;28;20096;-70
2023/12/11 07:36:06;;;;;;;0.00;0.00;;;5.40;100.00;;;;;;4999066;28;20046;-69
2023/12/11 07:38:33;;;;;;;0.00;0.00;;;5.40;100.00;;;;;;4993567;28;21470;-70
2023/12/11 07:41:00;;;;;;;0.00;0.00;;;5.40;100.00;;;;;;4996572;28;20054;-69
2023/12/11 07:43:31;;;;;;;0.00;0.00;;;5.40;100.00;;;;;;4995139;28;20153;-69
2023/12/11 07:45:59;;;;;;;0.00;0.00;;;5.40;100.00;;;;;;5004806;28;20078;-69
2023/12/11 07:48:28;;;;;;;0.00;0.00;;;5.40;100.00;;;;;;5000806;28;20057;-69
2023/12/11 07:50:56;;;;;;;0.00;0.00;;;5.40;100.00;;;;;;4996354;28;20572;-69
2023/12/11 07:53:23;;;;;;;0.00;0.00;;;5.40;100.00;;;;;;5004089;28;20064;-69
2023/12/11 07:55:50;;;;;;;0.00;0.00;;;5.50;100.00;;;;;;5012279;28;20081;-69
2023/12/11 07:58:16;;;;;;;0.00;0.00;;;5.50;100.00;;;;;;5000345;28;20046;-69
2023/12/11 08:00:44;;;;;;;0.00;0.00;;;5.50;100.00;;;;;;5004049;28;20512;-69
2023/12/11 08:03:11;;;;;;;0.00;0.00;;;5.50;100.00;;;;;;4999508;28;20046;-69
2023/12/11 08:05:37;;;;;;;0.00;0.00;;;5.50;100.00;;;;;;5005397;28;20498;-70
2023/12/11 08:08:05;;;;;;;0.00;0.00;;;5.60;100.00;;;;;;5005365;28;20621;-70
2023/12/11 08:10:32;;;;;;;0.00;0.00;;;5.60;100.00;;;;;;5005033;28;20073;-69
2023/12/11 08:12:59;;;;;;;0.00;0.00;;;5.70;100.00;;;;;;5002309;28;20107;-70
2023/12/11 08:15:26;;;;;;;0.00;0.00;;;5.70;100.00;;;;;;5003407;28;20054;-70
2023/12/11 08:17:53;;;;;;;0.00;0.00;;;5.70;100.00;;;;;;4998065;28;20641;-69
2023/12/11 08:20:20;;;;;;;0.00;0.00;;;5.80;100.00;;;;;;5006937;28;20130;-69
2023/12/11 08:22:47;;;;;;;0.00;0.00;;;5.80;100.00;;;;;;5001759;28;20046;-70
2023/12/11 08:25:15;;;;;;;0.00;0.00;;;5.80;100.00;;;;;;5005665;28;20041;-69
2023/12/11 08:27:42;;;;;;;0.00;0.00;;;5.80;100.00;;;;;;5005173;28;20141;-70
2023/12/11 08:30:10;;;;;;;0.00;0.00;;;5.90;100.00;;;;;;5006944;28;20108;-70
2023/12/11 08:32:39;;;;;;;0.00;0.00;;;5.90;100.00;;;;;;4999274;28;20049;-70
2023/12/11 08:35:07;;;;;;;0.00;0.00;;;6.00;100.00;;;;;;5007085;28;20050;-71
2023/12/11 08:37:36;;;;;;;0.00;0.00;;;6.00;100.00;;;;;;5006397;28;20046;-70
2023/12/11 08:40:04;;;;;;;0.00;0.00;;;6.00;100.00;;;;;;5005174;28;20057;-70
2023/12/11 08:42:33;;;;;;;0.00;0.00;;;6.00;100.00;;;;;;5006328;28;20046;-70
2023/12/11 08:45:07;;;;;;;0.00;0.00;;;6.00;100.00;;;;;;5018518;28;20116;-70
2023/12/11 08:47:34;;;;;;;0.00;0.00;;;6.00;100.00;;;;;;5007289;28;20066;-70
2023/12/11 08:50:06;;;;;;;0.00;0.00;;;6.00;100.00;;;;;;5002654;28;20054;-70
2023/12/11 08:52:35;;;;;;;0.00;0.00;;;6.10;100.00;;;;;;5003393;28;20075;-69
2023/12/11 08:55:03;;;;;;;0.00;0.00;;;6.10;100.00;;;;;;5006985;28;20145;-70
2023/12/11 08:57:30;;;;;;;0.00;0.00;;;6.20;100.00;;;;;;5005553;28;20084;-69
2023/12/11 08:59:57;;;;;;;0.00;0.00;;;6.20;100.00;;;;;;5005536;28;20045;-71
2023/12/11 09:02:25;;;;;;;0.00;0.00;;;6.20;100.00;;;;;;5006140;28;20057;-69
2023/12/11 09:04:52;;;;;;;0.00;0.00;;;6.30;100.00;;;;;;5005242;28;20101;-69
2023/12/11 09:07:19;;;;;;;0.00;0.00;;;6.30;100.00;;;;;;5001478;28;20897;-71
2023/12/11 09:09:46;;;;;;;0.00;0.00;;;6.30;100.00;;;;;;5007250;28;20061;-70
2023/12/11 09:12:13;;;;;;;0.00;0.00;;;6.30;100.00;;;;;;5005452;28;20060;-70
2023/12/11 09:14:56;;;;;;;0.00;0.00;;;6.30;100.00;;;;;;5018704;28;20869;-70
2023/12/11 09:17:23;;;;;;;0.00;0.00;;;6.30;100.00;;;;;;5005786;28;20366;-70
2023/12/11 09:19:50;;;;;;;0.00;0.00;;;6.40;100.00;;;;;;5006787;28;20046;-70
2023/12/11 09:22:22;;;;;;;0.00;0.00;;;6.30;100.00;;;;;;4998638;28;20042;-69
2023/12/11 09:24:49;;;;;;;0.00;0.00;;;6.40;100.00;;;;;;5006415;28;20058;-70
2023/12/11 09:27:16;;;;;;;0.00;0.00;;;6.40;100.00;;;;;;5003257;28;20046;-70
2023/12/11 09:29:43;;;;;;;0.00;0.00;;;6.40;100.00;;;;;;5022492;28;20449;-70
2023/12/11 09:32:10;;;;;;;0.00;0.00;;;6.50;100.00;;;;;;5007260;28;20707;-70
2023/12/11 09:34:37;;;;;;;0.00;0.00;;;6.50;100.00;;;;;;5006198;28;20056;-70
2023/12/11 09:37:04;;;;;;;0.00;0.00;;;6.50;100.00;;;;;;5000997;28;20683;-70
2023/12/11 09:39:31;;;;;;;0.00;0.00;;;6.50;100.00;;;;;;5003789;28;20042;-71
2023/12/11 09:42:00;;;;;;;0.00;0.00;;;6.50;100.00;;;;;;5019316;28;20135;-70
2023/12/11 09:44:28;;;;;;;0.00;0.00;;;6.50;100.00;;;;;;5003580;28;20155;-70
2023/12/11 09:47:03;;;;;;;0.00;0.00;;;6.60;100.00;;;;;;5006822;28;20049;-69
2023/12/11 09:49:31;;;;;;;0.00;0.00;;;6.60;100.00;;;;;;5003293;28;20057;-70
2023/12/11 09:51:59;;;;;;;0.00;0.00;;;6.70;100.00;;;;;;5001882;28;20136;-71
2023/12/11 09:54:26;;;;;;;0.00;0.00;;;6.80;100.00;;;;;;5021685;28;20060;-70
2023/12/11 09:56:54;;;;;;;0.00;0.00;;;6.80;100.00;;;;;;5005091;28;20112;-69
2023/12/11 09:59:22;;;;;;;0.00;0.00;;;6.80;100.00;;;;;;5008300;28;20061;-70
2023/12/11 10:01:50;;;;;;;0.00;0.00;;;6.90;100.00;;;;;;5006317;28;20057;-69
2023/12/11 10:04:17;;;;;;;0.00;0.00;;;6.90;100.00;;;;;;5004948;28;20096;-69
2023/12/11 10:06:44;;;;;;;0.00;0.00;;;7.00;100.00;;;;;;5004889;28;20054;-69
2023/12/11 10:09:33;;;;;;;0.00;0.00;;;7.00;100.00;;;;;;5003680;28;20046;-69
2023/12/11 10:12:02;;;;;;;0.00;0.00;;;7.10;100.00;;;;;;4998071;28;20057;-70
2023/12/11 10:14:30;;;;;;;0.00;0.00;;;7.10;100.00;;;;;;5002677;28;20141;-69
2023/12/11 10:16:58;;;;;;;0.00;0.00;;;7.10;100.00;;;;;;5004362;28;20695;-69
2023/12/11 10:19:33;;;;;;;0.00;0.00;;;7.20;100.00;;;;;;5006135;28;20057;-69
2023/12/11 10:22:03;;;;;;;0.00;0.00;;;7.20;100.00;;;;;;4999210;28;20053;-70
2023/12/11 10:24:30;;;;;;;0.00;0.00;;;7.20;100.00;;;;;;5020700;28;20137;-69
2023/12/11 10:26:58;;;;;;;0.00;0.00;;;7.20;100.00;;;;;;4997754;28;20049;-69
2023/12/11 10:29:27;;;;;;;0.00;0.00;;;7.20;100.00;;;;;;5000867;28;20577;-69
2023/12/11 10:32:01;;;;;;;0.00;0.00;;;7.20;100.00;;;;;;5001315;28;20121;-69
2023/12/11 10:34:50;;;;;;;0.00;0.00;;;7.20;100.00;;;;;;5005734;28;20133;-69
2023/12/11 10:37:17;;;;;;;0.00;0.00;;;7.20;100.00;;;;;;5000914;28;20691;-70
2023/12/11 10:39:52;;;;;;;0.00;0.00;;;7.20;100.00;;;;;;5002284;28;20053;-69
2023/12/11 10:42:20;;;;;;;0.00;0.00;;;7.20;100.00;;;;;;5001213;28;20050;-69
2023/12/11 10:44:48;;;;;;;0.00;0.00;;;7.20;100.00;;;;;;5005458;28;20057;-70
2023/12/11 10:47:20;;;;;;;0.00;0.00;;;7.20;100.00;;;;;;5005300;28;20140;-69
2023/12/11 10:49:48;;;;;;;0.00;0.00;;;7.20;100.00;;;;;;5004639;28;20617;-69
2023/12/11 10:52:16;;;;;;;0.00;0.00;;;7.20;100.00;;;;;;4998731;28;20490;-70
2023/12/11 10:54:45;;;;;;;0.00;0.00;;;7.20;100.00;;;;;;5019516;28;20053;-71
2023/12/11 10:57:14;;;;;;;0.00;0.00;;;7.20;100.00;;;;;;5004998;28;20478;-69
2023/12/11 10:59:43;;;;;;;0.00;0.00;;;7.20;100.00;;;;;;5017311;28;20066;-69
2023/12/11 11:02:15;;;;;;;0.00;0.00;;;7.20;100.00;;;;;;5005379;28;20048;-69
2023/12/11 11:04:44;;;;;;;0.00;0.00;;;7.20;100.00;;;;;;5002375;28;20566;-70
2023/12/11 11:07:35;;;;;;;0.00;0.00;;;7.30;100.00;;;;;;5018525;28;20398;-70
2023/12/11 11:10:11;;;;;;;0.00;0.00;;;7.40;100.00;;;;;;4997561;28;20054;-69
2023/12/11 11:12:47;;;;;;;0.00;0.00;;;7.40;100.00;;;;;;4997731;28;20054;-70
2023/12/11 11:15:25;;;;;;;0.40;0.40;;;7.60;100.00;;;;;;5003653;28;20536;-69
2023/12/11 11:18:05;;;;;;;0.00;0.00;;;7.80;100.00;;;;;;4993357;28;20054;-69
2023/12/11 11:20:37;;;;;;;0.00;0.00;;;8.00;100.00;;;;;;5002774;28;20050;-68
2023/12/11 11:23:16;;;;;;;0.00;0.00;;;8.10;100.00;;;;;;5005857;28;20061;-70
2023/12/11 11:25:51;;;;;;;0.00;0.00;;;8.10;100.00;;;;;;4995127;28;20050;-70
2023/12/11 11:28:38;;;;;;;0.00;0.00;;;8.20;100.00;;;;;;5003959;28;20450;-70
2023/12/11 11:31:09;;;;;;;0.00;0.00;;;8.20;100.00;;;;;;4999200;28;20586;-70
2023/12/11 11:33:53;;;;;;;0.00;0.00;;;8.20;100.00;;;;;;5005732;28;20065;-70
2023/12/11 11:36:40;;;;;;;0.00;0.00;;;8.20;100.00;;;;;;4999081;28;20057;-70
2023/12/11 11:39:07;;;;;;;0.00;0.00;;;8.20;100.00;;;;;;5018732;28;20523;-70
2023/12/11 11:41:36;;;;;;;0.00;0.00;;;8.20;100.00;;;;;;5000027;28;20540;-70
2023/12/11 11:44:07;;;;;;;0.00;0.00;;;8.20;100.00;;;;;;4995275;28;20482;-69
2023/12/11 11:46:49;;;;;;;0.00;0.00;;;8.20;100.00;;;;;;5002229;28;20050;-70
2023/12/11 11:49:28;;;;;;;0.00;0.00;;;8.20;100.00;;;;;;5002782;28;20053;-69
2023/12/11 11:51:56;;;;;;;0.00;0.00;;;8.20;100.00;;;;;;5004072;28;20054;-69
2023/12/11 11:54:24;;;;;;;0.00;0.00;;;8.20;100.00;;;;;;5003672;28;20156;-69
2023/12/11 11:56:52;;;;;;;0.00;0.00;;;8.10;100.00;;;;;;5000362;28;20167;-70
2023/12/11 11:59:19;;;;;;;0.00;0.00;;;8.20;100.00;;;;;;4998713;28;20792;-69
2023/12/11 12:01:56;;;;;;;0.00;0.00;;;8.10;100.00;;;;;;5003593;28;20384;-69
2023/12/11 12:04:27;;;;;;;0.00;0.00;;;8.10;100.00;;;;;;4997266;28;20493;-70
2023/12/11 12:07:00;;;;;;;0.00;0.00;;;8.10;100.00;;;;;;4997256;28;20453;-70
2023/12/11 12:09:27;;;;;;;0.00;0.00;;;8.00;100.00;;;;;;5000796;28;20104;-70
2023/12/11 12:11:54;;;;;;;0.00;0.00;;;8.00;100.00;;;;;;5002463;28;20421;-70
2023/12/11 12:14:21;;;;;;;0.00;0.00;;;8.00;100.00;;;;;;5003237;28;20061;-69
2023/12/11 12:16:49;;;;;;;0.00;0.00;;;8.00;100.00;;;;;;5003490;28;20773;-70
2023/12/11 12:19:17;;;;;;;0.00;0.00;;;7.90;100.00;;;;;;4993867;28;20050;-70
2023/12/11 12:21:47;;;;;;;0.00;0.00;;;7.90;100.00;;;;;;5001605;28;20498;-70
2023/12/11 12:24:15;;;;;;;0.00;0.00;;;7.90;100.00;;;;;;5000367;28;20043;-69
2023/12/11 12:26:42;;;;;;;0.00;0.00;;;7.90;100.00;;;;;;5001272;28;20515;-69
2023/12/11 12:29:10;;;;;;;0.00;0.00;;;7.90;100.00;;;;;;5004451;28;20235;-69
2023/12/11 12:31:38;;;;;;;0.00;0.00;;;7.90;100.00;;;;;;5018555;28;20147;-69
2023/12/11 12:34:08;;;;;;;0.00;0.00;;;7.90;100.00;;;;;;4999199;28;20548;-69
2023/12/11 12:36:36;;;;;;;0.00;0.00;;;7.90;100.00;;;;;;5001373;28;20431;-69
2023/12/11 12:39:04;;;;;;;0.00;0.00;;;7.90;100.00;;;;;;5005183;28;20049;-69
2023/12/11 12:41:31;;;;;;;0.00;0.00;;;7.90;100.00;;;;;;5007429;28;20128;-69
2023/12/11 12:43:59;;;;;;;0.00;0.00;;;7.80;100.00;;;;;;4997185;28;20141;-69
2023/12/11 12:46:27;;;;;;;0.00;0.00;;;7.90;100.00;;;;;;5005325;28;20057;-70
2023/12/11 12:48:54;;;;;;;0.00;0.00;;;7.90;100.00;;;;;;5006448;28;20184;-69
2023/12/11 12:51:21;;;;;;;0.00;0.00;;;7.90;100.00;;;;;;5019660;28;20064;-70
2023/12/11 12:53:49;;;;;;;0.00;0.00;;;7.90;100.00;;;;;;5006145;28;20054;-69
2023/12/11 12:56:20;;;;;;;0.00;0.00;;;7.90;100.00;;;;;;5006350;28;20049;-68